Terminal Aerodrome Forecast
Issued by NWS

Current Version | Previous Version | Text Only | Print | Product List | Glossary On
Versions: 1 2 3 4 5 6 7 8 9 10 11 12
000
FTUS44 KLIX 120534
TAFMCB
TAF
KMCB 120534Z 1206/1306 26006KT P6SM SKC WS020/27040KT
     FM120900 30007KT P6SM SKC
     FM121200 34007KT P6SM SKC
     FM121500 35012KT P6SM SKC
     FM130000 33004KT P6SM SKC=

USA.gov is the U.S. government's official web portal to all federal, state and local government web resources and services.